createdAt,value
2022-12-05T00:00:30.331Z,989.49
2022-12-05T00:01:32.070Z,989.48
2022-12-05T00:02:33.877Z,989.48
2022-12-05T00:03:35.468Z,989.47
2022-12-05T00:04:37.415Z,989.54
2022-12-05T00:05:40.165Z,989.52
2022-12-05T00:06:40.693Z,989.57
2022-12-05T00:07:42.452Z,989.55
2022-12-05T00:08:44.240Z,989.55
2022-12-05T00:09:45.930Z,989.59
2022-12-05T00:10:47.620Z,989.58
2022-12-05T00:11:49.376Z,989.57
2022-12-05T00:12:51.113Z,989.6
2022-12-05T00:13:52.886Z,989.54
2022-12-05T00:15:25.580Z,989.55
2022-12-05T00:16:32.189Z,989.61
2022-12-05T00:17:34.852Z,989.62
2022-12-05T00:18:37.687Z,989.64
2022-12-05T00:19:38.196Z,989.68
2022-12-05T00:20:39.961Z,989.72
2022-12-05T00:21:41.682Z,989.72
2022-12-05T00:22:43.369Z,989.76
2022-12-05T00:23:46.225Z,989.75
2022-12-05T00:24:48.437Z,989.79
2022-12-05T00:25:48.574Z,989.83
2022-12-05T00:26:50.289Z,989.83
2022-12-05T00:27:51.992Z,989.78
2022-12-05T00:28:53.745Z,989.84
2022-12-05T00:29:55.917Z,989.85
2022-12-05T00:30:58.668Z,989.76
2022-12-05T00:31:59.054Z,989.82
2022-12-05T00:33:00.691Z,989.77
2022-12-05T00:34:03.629Z,989.86
2022-12-05T00:35:04.130Z,989.86
2022-12-05T00:36:05.873Z,989.85
2022-12-05T00:37:07.696Z,989.86
2022-12-05T00:38:09.362Z,989.87
2022-12-05T00:39:11.087Z,989.87
2022-12-05T00:40:12.803Z,989.92
2022-12-05T00:41:13.876Z,990.01
2022-12-05T00:42:16.268Z,989.91
2022-12-05T00:43:18.044Z,989.9
2022-12-05T00:44:21.328Z,989.91
2022-12-05T00:45:21.516Z,989.97
2022-12-05T00:46:23.391Z,989.97
2022-12-05T00:47:27.099Z,989.97
2022-12-05T00:48:27.870Z,989.92
2022-12-05T00:49:28.483Z,989.92
2022-12-05T00:50:31.490Z,989.9
2022-12-05T00:51:31.860Z,990.01
2022-12-05T00:52:33.614Z,990.01
2022-12-05T00:53:36.785Z,990.02
2022-12-05T00:54:39.899Z,990.02
2022-12-05T00:55:43.927Z,990.01
2022-12-05T00:56:47.050Z,990.06
2022-12-05T00:57:47.418Z,990.05
2022-12-05T00:58:50.352Z,990.05
2022-12-05T00:59:51.983Z,990.06
2022-12-05T01:00:52.653Z,990.11
2022-12-05T01:01:55.901Z,990.11
2022-12-05T01:02:56.186Z,990.07
2022-12-05T01:03:57.845Z,990.1
2022-12-05T01:04:59.527Z,990.07
2022-12-05T01:06:01.305Z,990.01
2022-12-05T01:07:03.033Z,990.05
2022-12-05T01:08:06.270Z,990.11
2022-12-05T01:09:06.570Z,990.1
2022-12-05T01:10:09.614Z,990.08
2022-12-05T01:11:11.336Z,990.1
2022-12-05T01:12:13.152Z,990.08
2022-12-05T01:13:13.447Z,990.09
2022-12-05T01:14:15.155Z,990.07
2022-12-05T01:15:16.898Z,990.07
2022-12-05T01:16:18.715Z,990.07
2022-12-05T01:17:20.437Z,989.99
2022-12-05T01:18:22.070Z,990.08
2022-12-05T01:19:23.790Z,990.05
2022-12-05T01:20:25.537Z,990.07
2022-12-05T01:21:27.276Z,990.1
2022-12-05T01:22:30.391Z,990.11
2022-12-05T01:23:30.731Z,990.14
2022-12-05T01:24:32.487Z,990.12
2022-12-05T01:25:38.773Z,990.11
2022-12-05T01:26:41.166Z,990.11
2022-12-05T01:27:42.839Z,990.16
2022-12-05T01:28:45.497Z,990.16
2022-12-05T01:29:46.299Z,990.19
2022-12-05T01:30:48.057Z,990.18
2022-12-05T01:31:49.884Z,990.21
2022-12-05T01:32:54.000Z,990.26
2022-12-05T01:33:58.450Z,990.26
2022-12-05T01:35:00.143Z,990.24
2022-12-05T01:36:01.823Z,990.3
2022-12-05T01:37:03.578Z,990.17
2022-12-05T01:38:06.496Z,990.28
2022-12-05T01:39:07.012Z,990.26
2022-12-05T01:40:08.824Z,990.26
2022-12-05T01:41:10.530Z,990.24
2022-12-05T01:42:13.665Z,990.29
2022-12-05T01:43:13.944Z,990.3
2022-12-05T01:44:15.706Z,990.28
2022-12-05T01:45:17.421Z,990.3
2022-12-05T01:46:19.180Z,990.29
2022-12-05T01:47:20.883Z,990.31
2022-12-05T01:48:23.851Z,990.34
2022-12-05T01:49:24.680Z,990.41
2022-12-05T01:50:31.005Z,990.38
2022-12-05T01:51:32.913Z,990.41
2022-12-05T01:52:34.722Z,990.41
2022-12-05T01:53:36.398Z,990.43
2022-12-05T01:54:38.135Z,990.43
2022-12-05T01:55:39.137Z,990.47
2022-12-05T01:56:41.612Z,990.47
2022-12-05T01:57:43.338Z,990.46
2022-12-05T01:58:45.058Z,990.43
2022-12-05T01:59:46.989Z,990.44
2022-12-05T02:00:48.774Z,990.4
2022-12-05T02:01:50.308Z,990.38
2022-12-05T02:02:52.260Z,990.38
2022-12-05T02:03:53.902Z,990.31
2022-12-05T02:04:55.620Z,990.33
2022-12-05T02:05:57.415Z,990.3
2022-12-05T02:06:59.080Z,990.27
2022-12-05T02:08:05.362Z,990.33
2022-12-05T02:09:08.961Z,990.28
2022-12-05T02:10:09.406Z,990.3
2022-12-05T02:11:11.128Z,990.23
2022-12-05T02:12:12.845Z,990.27
2022-12-05T02:13:14.622Z,990.22
2022-12-05T02:14:16.355Z,990.2
2022-12-05T02:15:18.086Z,990.22
2022-12-05T02:16:19.112Z,990.25
2022-12-05T02:17:21.544Z,990.27
2022-12-05T02:18:23.272Z,990.33
2022-12-05T02:19:24.994Z,990.31
2022-12-05T02:20:26.729Z,990.35
2022-12-05T02:21:28.437Z,990.33
2022-12-05T02:22:31.313Z,990.37
2022-12-05T02:23:31.933Z,990.39
2022-12-05T02:24:33.647Z,990.4
2022-12-05T02:25:35.394Z,990.21
2022-12-05T02:26:37.173Z,990.28
2022-12-05T02:27:44.712Z,990.34
2022-12-05T02:28:47.157Z,990.33
2022-12-05T02:29:47.528Z,990.34
2022-12-05T02:30:53.539Z,990.36
2022-12-05T02:31:58.081Z,990.36
2022-12-05T02:33:02.994Z,990.4
2022-12-05T02:34:09.037Z,990.42
2022-12-05T02:35:11.602Z,990.41
2022-12-05T02:36:11.611Z,990.36
2022-12-05T02:37:15.096Z,990.38
2022-12-05T02:38:16.897Z,990.37
2022-12-05T02:39:18.548Z,990.38
2022-12-05T02:40:21.606Z,990.32
2022-12-05T02:41:21.997Z,990.4
2022-12-05T02:42:23.772Z,990.39
2022-12-05T02:43:26.860Z,990.39
2022-12-05T02:44:27.223Z,990.41
2022-12-05T02:45:29.034Z,990.4
2022-12-05T02:46:30.747Z,990.34
2022-12-05T02:47:32.399Z,990.4
2022-12-05T02:48:34.162Z,990.36
2022-12-05T02:49:35.877Z,990.4
2022-12-05T02:50:38.991Z,990.45
2022-12-05T02:51:39.419Z,990.45
2022-12-05T02:52:41.100Z,990.47
2022-12-05T02:53:42.848Z,990.41
2022-12-05T02:54:48.644Z,990.42
2022-12-05T02:55:52.837Z,990.41
2022-12-05T02:56:53.177Z,990.31
2022-12-05T02:57:54.911Z,990.37
2022-12-05T02:58:55.867Z,990.35
2022-12-05T02:59:58.439Z,990.38
2022-12-05T03:01:01.687Z,990.36
2022-12-05T03:02:03.258Z,990.4
2022-12-05T03:03:04.977Z,990.42
2022-12-05T03:04:05.447Z,990.42
2022-12-05T03:05:07.011Z,990.42
2022-12-05T03:06:08.738Z,990.49
2022-12-05T03:07:10.475Z,990.46
2022-12-05T03:08:12.342Z,990.44
2022-12-05T03:09:15.363Z,990.47
2022-12-05T03:10:15.712Z,990.46
2022-12-05T03:11:17.405Z,990.42
2022-12-05T03:12:19.249Z,990.44
2022-12-05T03:13:20.877Z,990.48
2022-12-05T03:14:22.647Z,990.43
2022-12-05T03:15:25.513Z,990.45
2022-12-05T03:16:26.198Z,990.48
2022-12-05T03:17:27.915Z,990.46
2022-12-05T03:18:29.644Z,990.48
2022-12-05T03:19:31.377Z,990.5
2022-12-05T03:20:33.128Z,990.5
2022-12-05T03:21:36.325Z,990.5
2022-12-05T03:22:36.582Z,990.56
2022-12-05T03:23:38.344Z,990.57
2022-12-05T03:24:40.013Z,990.57
2022-12-05T03:25:41.732Z,990.49
2022-12-05T03:26:43.489Z,990.56
2022-12-05T03:27:45.244Z,990.63
2022-12-05T03:28:48.414Z,990.66
2022-12-05T03:29:48.714Z,990.64
2022-12-05T03:30:50.424Z,990.64
2022-12-05T03:31:52.148Z,990.7
2022-12-05T03:32:53.917Z,990.68
2022-12-05T03:33:55.074Z,990.69
2022-12-05T03:34:58.575Z,990.71
2022-12-05T03:35:59.051Z,990.73
2022-12-05T03:37:00.804Z,990.76
2022-12-05T03:38:02.552Z,990.79
2022-12-05T03:39:04.343Z,990.69
2022-12-05T03:40:06.015Z,990.74
2022-12-05T03:41:09.307Z,990.74
2022-12-05T03:42:09.510Z,990.71
2022-12-05T03:43:11.228Z,990.69
2022-12-05T03:44:12.074Z,990.72
2022-12-05T03:45:20.739Z,990.75
2022-12-05T03:46:21.588Z,990.72
2022-12-05T03:47:23.360Z,990.71
2022-12-05T03:48:30.227Z,990.8
2022-12-05T03:49:34.306Z,990.76
2022-12-05T03:50:33.645Z,990.8
2022-12-05T03:51:34.824Z,990.76
2022-12-05T03:53:03.677Z,990.8
2022-12-05T03:53:38.816Z,990.73
2022-12-05T03:54:40.543Z,990.75
2022-12-05T03:55:43.594Z,990.75
2022-12-05T03:56:44.030Z,990.72
2022-12-05T03:57:45.802Z,990.71
2022-12-05T03:58:47.511Z,990.76
2022-12-05T03:59:52.048Z,990.72
2022-12-05T04:00:56.063Z,990.76
2022-12-05T04:01:59.322Z,990.76
2022-12-05T04:02:59.632Z,990.76
2022-12-05T04:04:02.776Z,990.72
2022-12-05T04:05:03.003Z,990.69
2022-12-05T04:06:04.726Z,990.66
2022-12-05T04:07:06.514Z,990.65
2022-12-05T04:08:08.275Z,990.71
2022-12-05T04:09:16.880Z,990.73
2022-12-05T04:10:11.699Z,990.73
2022-12-05T04:11:13.387Z,990.78
2022-12-05T04:12:15.195Z,990.77
2022-12-05T04:13:18.111Z,990.8
2022-12-05T04:14:18.687Z,990.83
2022-12-05T04:15:21.356Z,990.9
2022-12-05T04:16:22.159Z,990.88
2022-12-05T04:17:23.829Z,990.93
2022-12-05T04:18:25.526Z,990.91
2022-12-05T04:19:28.372Z,990.92
2022-12-05T04:20:29.049Z,990.89
2022-12-05T04:21:30.771Z,990.83
2022-12-05T04:22:32.460Z,990.8
2022-12-05T04:23:34.192Z,990.78
2022-12-05T04:24:37.214Z,990.83
2022-12-05T04:25:37.605Z,990.83
2022-12-05T04:26:40.596Z,990.83
2022-12-05T04:27:41.071Z,990.75
2022-12-05T04:28:45.363Z,990.75
2022-12-05T04:29:50.749Z,990.77
2022-12-05T04:30:51.477Z,990.85
2022-12-05T04:31:53.192Z,990.9
2022-12-05T04:32:56.335Z,990.98
2022-12-05T04:34:01.045Z,991.07
2022-12-05T04:35:03.580Z,991.05
2022-12-05T04:36:05.294Z,991.11
2022-12-05T04:37:08.045Z,991.11
2022-12-05T04:38:10.258Z,991.14
2022-12-05T04:39:16.097Z,991.19
2022-12-05T04:40:12.198Z,991.18
2022-12-05T04:41:13.903Z,991.16
2022-12-05T04:42:15.639Z,991.24
2022-12-05T04:43:18.544Z,991.19
2022-12-05T04:44:19.096Z,991.28
2022-12-05T04:45:22.247Z,991.28
2022-12-05T04:46:22.596Z,991.23
2022-12-05T04:47:24.339Z,991.31
2022-12-05T04:48:26.038Z,991.27
2022-12-05T04:49:27.821Z,991.23
2022-12-05T04:50:32.046Z,991.31
2022-12-05T04:51:37.540Z,991.25
2022-12-05T04:52:38.188Z,991.25
2022-12-05T04:53:39.892Z,991.23
2022-12-05T04:54:41.648Z,991.22
2022-12-05T04:55:47.682Z,991.22
2022-12-05T04:56:50.236Z,991.23
2022-12-05T04:57:52.026Z,991.21
2022-12-05T04:58:53.677Z,991.19
2022-12-05T04:59:56.928Z,991.24
2022-12-05T05:00:58.544Z,991.21
2022-12-05T05:01:58.918Z,991.16
2022-12-05T05:02:59.752Z,991.21
2022-12-05T05:04:02.347Z,991.14
2022-12-05T05:05:05.548Z,991.14
2022-12-05T05:06:05.799Z,991.13
2022-12-05T05:07:07.541Z,991.09
2022-12-05T05:08:09.249Z,991.15
2022-12-05T05:09:12.250Z,991.13
2022-12-05T05:10:12.662Z,991.13
2022-12-05T05:11:13.783Z,991.18
2022-12-05T05:12:19.239Z,991.16
2022-12-05T05:13:20.610Z,991.2
2022-12-05T05:14:20.972Z,991.24
2022-12-05T05:15:22.627Z,991.22
2022-12-05T05:16:23.263Z,991.26
2022-12-05T05:17:27.453Z,991.21
2022-12-05T05:18:31.778Z,991.2
2022-12-05T05:19:33.519Z,991.21
2022-12-05T05:20:34.627Z,991.25
2022-12-05T05:21:36.977Z,991.2
2022-12-05T05:22:38.738Z,991.22
2022-12-05T05:23:40.458Z,991.2
2022-12-05T05:24:42.207Z,991.14
2022-12-05T05:25:43.866Z,991.06
2022-12-05T05:26:45.610Z,991.09
2022-12-05T05:27:47.369Z,991.11
2022-12-05T05:28:49.146Z,991.12
2022-12-05T05:29:50.846Z,991.11
2022-12-05T05:30:52.649Z,991.1
2022-12-05T05:31:54.340Z,991.15
2022-12-05T05:32:56.032Z,991.17
2022-12-05T05:33:57.786Z,991.16
2022-12-05T05:34:59.494Z,991.16
2022-12-05T05:36:01.253Z,991.17
2022-12-05T05:37:04.348Z,991.19
2022-12-05T05:38:07.400Z,991.21
2022-12-05T05:39:11.577Z,991.23
2022-12-05T05:40:13.331Z,991.21
2022-12-05T05:41:15.013Z,991.21
2022-12-05T05:42:16.740Z,991.23
2022-12-05T05:43:18.495Z,991.24
2022-12-05T05:44:20.242Z,991.26
2022-12-05T05:45:22.006Z,991.23
2022-12-05T05:46:23.739Z,991.24
2022-12-05T05:47:25.446Z,991.28
2022-12-05T05:48:27.217Z,991.3
2022-12-05T05:49:29.021Z,991.25
2022-12-05T05:50:30.695Z,991.27
2022-12-05T05:51:32.489Z,991.27
2022-12-05T05:52:34.151Z,991.27
2022-12-05T05:53:35.933Z,991.29
2022-12-05T05:54:40.526Z,991.25
2022-12-05T05:55:44.590Z,991.26
2022-12-05T05:56:46.355Z,991.28
2022-12-05T05:57:47.985Z,991.27
2022-12-05T05:58:51.196Z,991.29
2022-12-05T05:59:54.365Z,991.27
2022-12-05T06:00:57.366Z,991.23
2022-12-05T06:02:24.064Z,991.32
2022-12-05T06:03:25.872Z,991.33
2022-12-05T06:04:26.304Z,991.33
2022-12-05T06:05:29.527Z,991.34
2022-12-05T06:06:30.817Z,991.36
2022-12-05T06:07:31.698Z,991.39
2022-12-05T06:08:34.235Z,991.37
2022-12-05T06:09:36.017Z,991.36
2022-12-05T06:10:45.864Z,991.34
2022-12-05T06:11:51.079Z,991.39
2022-12-05T06:12:52.598Z,991.4
2022-12-05T06:13:53.173Z,991.38
2022-12-05T06:14:56.377Z,991.41
2022-12-05T06:15:56.777Z,991.36
2022-12-05T06:16:58.513Z,991.41
2022-12-05T06:18:00.139Z,991.4
2022-12-05T06:19:01.928Z,991.43
2022-12-05T06:20:03.620Z,991.38
2022-12-05T06:21:14.667Z,991.38
2022-12-05T06:22:13.319Z,991.43
2022-12-05T06:23:15.406Z,991.38
2022-12-05T06:24:21.094Z,991.39
2022-12-05T06:25:22.675Z,991.42
2022-12-05T06:26:24.318Z,991.44
2022-12-05T06:27:26.095Z,991.41
2022-12-05T06:28:28.980Z,991.46
2022-12-05T06:29:33.641Z,991.47
2022-12-05T06:30:32.808Z,991.39
2022-12-05T06:31:33.018Z,991.48
2022-12-05T06:32:36.020Z,991.47
2022-12-05T06:33:36.481Z,991.48
2022-12-05T06:34:39.399Z,991.49
2022-12-05T06:35:39.903Z,991.43
2022-12-05T06:36:42.720Z,991.49
2022-12-05T06:37:43.345Z,991.38
2022-12-05T06:38:45.049Z,991.48
2022-12-05T06:39:46.874Z,991.44
2022-12-05T06:40:48.658Z,991.43
2022-12-05T06:41:51.969Z,991.47
2022-12-05T06:42:53.648Z,991.43
2022-12-05T06:43:57.371Z,991.5
2022-12-05T06:44:56.988Z,991.49
2022-12-05T06:46:01.762Z,991.51
2022-12-05T06:47:06.894Z,991.51
2022-12-05T06:48:12.274Z,991.58
2022-12-05T06:49:12.751Z,991.6
2022-12-05T06:50:14.521Z,991.63
2022-12-05T06:51:16.224Z,991.58
2022-12-05T06:52:17.987Z,991.6
2022-12-05T06:53:19.694Z,991.63
2022-12-05T06:54:21.515Z,991.64
2022-12-05T06:55:23.147Z,991.7
2022-12-05T06:56:24.919Z,991.73
2022-12-05T06:57:26.691Z,991.7
2022-12-05T06:58:29.663Z,991.71
2022-12-05T06:59:30.104Z,991.74
2022-12-05T07:00:33.215Z,991.73
2022-12-05T07:01:33.685Z,991.73
2022-12-05T07:02:35.436Z,991.72
2022-12-05T07:03:38.230Z,991.77
2022-12-05T07:04:38.769Z,991.74
2022-12-05T07:05:41.884Z,991.73
2022-12-05T07:06:46.115Z,991.7
2022-12-05T07:07:44.133Z,991.72
2022-12-05T07:08:45.805Z,991.68
2022-12-05T07:09:47.695Z,991.75
2022-12-05T07:10:50.242Z,991.8
2022-12-05T07:11:50.869Z,991.82
2022-12-05T07:12:52.621Z,991.87
2022-12-05T07:13:54.361Z,991.86
2022-12-05T07:14:56.106Z,991.91
2022-12-05T07:15:57.899Z,991.88
2022-12-05T07:16:59.641Z,991.89
2022-12-05T07:18:01.296Z,991.9
2022-12-05T07:19:03.094Z,991.89
2022-12-05T07:20:06.301Z,991.88
2022-12-05T07:21:13.463Z,991.91
2022-12-05T07:22:12.154Z,991.89
2022-12-05T07:23:12.470Z,991.88
2022-12-05T07:24:16.887Z,991.89
2022-12-05T07:25:21.256Z,991.86
2022-12-05T07:26:25.438Z,991.75
2022-12-05T07:27:28.292Z,991.9
2022-12-05T07:28:29.966Z,991.92
2022-12-05T07:29:30.638Z,991.92
2022-12-05T07:30:32.406Z,991.91
2022-12-05T07:31:34.257Z,991.95
2022-12-05T07:32:36.968Z,991.94
2022-12-05T07:33:37.601Z,991.92
2022-12-05T07:34:39.306Z,991.93
2022-12-05T07:35:39.380Z,991.93
2022-12-05T07:36:42.803Z,991.92
2022-12-05T07:37:44.537Z,991.93
2022-12-05T07:38:46.254Z,992.04
2022-12-05T07:39:48.118Z,992.08
2022-12-05T07:40:49.741Z,992.11
2022-12-05T07:41:51.491Z,992.14
2022-12-05T07:42:53.236Z,992.12
2022-12-05T07:43:55.996Z,992.21
2022-12-05T07:44:56.760Z,992.14
2022-12-05T07:45:58.488Z,992.17
2022-12-05T07:47:00.239Z,992.09
2022-12-05T07:48:02.026Z,992.14
2022-12-05T07:49:03.641Z,992.11
2022-12-05T07:50:09.563Z,992.07
2022-12-05T07:51:12.171Z,992.21
2022-12-05T07:52:13.908Z,992.16
2022-12-05T07:53:15.648Z,992.19
2022-12-05T07:54:17.386Z,992.25
2022-12-05T07:55:19.169Z,992.23
2022-12-05T07:56:20.921Z,992.24
2022-12-05T07:57:22.610Z,992.33
2022-12-05T07:58:25.452Z,992.33
2022-12-05T07:59:27.212Z,992.34
2022-12-05T08:00:27.961Z,992.38
2022-12-05T08:01:29.635Z,992.41
2022-12-05T08:02:31.369Z,992.42
2022-12-05T08:03:34.334Z,992.41
2022-12-05T08:04:35.968Z,992.45
2022-12-05T08:05:37.593Z,992.45
2022-12-05T08:06:39.277Z,992.5
2022-12-05T08:07:42.505Z,992.53
2022-12-05T08:08:46.738Z,992.53
2022-12-05T08:09:48.545Z,992.5
2022-12-05T08:10:56.033Z,992.49
2022-12-05T08:12:01.624Z,992.48
2022-12-05T08:13:04.036Z,992.57
2022-12-05T08:14:06.953Z,992.57
2022-12-05T08:15:07.443Z,992.5
2022-12-05T08:16:09.162Z,992.58
2022-12-05T08:17:11.019Z,992.57
2022-12-05T08:18:14.106Z,992.57
2022-12-05T08:19:15.655Z,992.49
2022-12-05T08:20:16.125Z,992.45
2022-12-05T08:21:17.934Z,992.52
2022-12-05T08:22:22.859Z,992.49
2022-12-05T08:23:24.604Z,992.54
2022-12-05T08:24:27.551Z,992.48
2022-12-05T08:25:28.027Z,992.5
2022-12-05T08:26:29.835Z,992.56
2022-12-05T08:27:30.601Z,992.54
2022-12-05T08:28:33.227Z,992.57
2022-12-05T08:29:34.962Z,992.55
2022-12-05T08:30:36.731Z,992.56
2022-12-05T08:31:38.437Z,992.55
2022-12-05T08:32:42.156Z,992.54
2022-12-05T08:33:43.345Z,992.57
2022-12-05T08:34:43.665Z,992.56
2022-12-05T08:35:46.702Z,992.61
2022-12-05T08:36:47.151Z,992.6
2022-12-05T08:37:48.809Z,992.59
2022-12-05T08:38:50.611Z,992.63
2022-12-05T08:39:51.588Z,992.64
2022-12-05T08:40:55.253Z,992.74
2022-12-05T08:41:55.803Z,992.68
2022-12-05T08:43:03.186Z,992.73
2022-12-05T08:44:06.413Z,992.77
2022-12-05T08:45:17.330Z,992.81
2022-12-05T08:46:18.216Z,992.77
2022-12-05T08:47:19.888Z,992.75
2022-12-05T08:48:28.831Z,992.78
2022-12-05T08:49:23.363Z,992.78
2022-12-05T08:50:25.141Z,992.77
2022-12-05T08:51:26.852Z,992.8
2022-12-05T08:52:28.576Z,992.76
2022-12-05T08:53:31.323Z,992.74
2022-12-05T08:54:34.504Z,992.78
2022-12-05T08:55:35.113Z,992.75
2022-12-05T08:56:35.532Z,992.78
2022-12-05T08:57:37.182Z,992.64
2022-12-05T08:58:38.943Z,992.82
2022-12-05T08:59:40.710Z,992.84
2022-12-05T09:00:42.474Z,992.86
2022-12-05T09:01:45.744Z,992.91
2022-12-05T09:02:45.947Z,992.87
2022-12-05T09:03:48.749Z,992.88
2022-12-05T09:04:53.715Z,992.88
2022-12-05T09:05:54.831Z,992.92
2022-12-05T09:06:52.853Z,992.97
2022-12-05T09:07:54.627Z,992.95
2022-12-05T09:08:56.279Z,992.93
2022-12-05T09:09:58.019Z,992.94
2022-12-05T09:10:59.705Z,992.93
2022-12-05T09:12:01.437Z,992.92
2022-12-05T09:13:03.169Z,992.95
2022-12-05T09:14:04.965Z,992.9
2022-12-05T09:15:06.615Z,992.91
2022-12-05T09:16:08.449Z,992.88
2022-12-05T09:17:10.176Z,992.85
2022-12-05T09:18:11.841Z,992.88
2022-12-05T09:19:13.566Z,992.91
2022-12-05T09:20:15.332Z,992.88
2022-12-05T09:21:17.026Z,992.88
2022-12-05T09:22:19.287Z,992.88
2022-12-05T09:23:20.528Z,993
2022-12-05T09:24:22.216Z,992.94
2022-12-05T09:25:23.980Z,992.97
2022-12-05T09:26:25.677Z,992.92
2022-12-05T09:27:27.420Z,993.03
2022-12-05T09:28:29.141Z,993.01
2022-12-05T09:29:30.893Z,992.99
2022-12-05T09:30:32.615Z,993.06
2022-12-05T09:31:34.437Z,993.05
2022-12-05T09:32:36.097Z,993.11
2022-12-05T09:33:37.831Z,993.16
2022-12-05T09:34:39.558Z,993.12
2022-12-05T09:35:41.279Z,993.15
2022-12-05T09:36:43.073Z,993.13
2022-12-05T09:37:44.750Z,993.16
2022-12-05T09:38:46.523Z,993.18
2022-12-05T09:39:48.218Z,993.09
2022-12-05T09:40:49.995Z,993.14
2022-12-05T09:41:51.697Z,993.09
2022-12-05T09:42:53.463Z,993.08
2022-12-05T09:43:55.140Z,993.1
2022-12-05T09:44:57.166Z,993.15
2022-12-05T09:45:58.695Z,993.09
2022-12-05T09:47:00.395Z,993.06
2022-12-05T09:48:02.120Z,993.11
2022-12-05T09:49:03.829Z,993.06
2022-12-05T09:50:07.039Z,993.05
2022-12-05T09:51:07.278Z,993.06
2022-12-05T09:52:09.018Z,993.07
2022-12-05T09:53:10.794Z,993.05
2022-12-05T09:54:12.482Z,993.07
2022-12-05T09:55:14.255Z,993.1
2022-12-05T09:56:15.939Z,993.07
2022-12-05T09:57:17.682Z,993.02
2022-12-05T09:58:19.417Z,993.1
2022-12-05T09:59:21.189Z,993.05
2022-12-05T10:00:23.121Z,993.04
2022-12-05T10:01:24.710Z,993.03
2022-12-05T10:02:26.349Z,993.06
2022-12-05T10:03:28.112Z,993.03
2022-12-05T10:04:29.891Z,993.07
2022-12-05T10:05:31.633Z,993.01
2022-12-05T10:06:33.289Z,993
2022-12-05T10:07:35.103Z,992.96
2022-12-05T10:08:36.791Z,993
2022-12-05T10:09:38.506Z,993.03
2022-12-05T10:10:40.230Z,993.01
2022-12-05T10:11:41.970Z,993.02
2022-12-05T10:12:43.673Z,993
2022-12-05T10:13:45.415Z,992.98
2022-12-05T10:14:47.134Z,993
2022-12-05T10:15:53.014Z,992.98
2022-12-05T10:16:50.708Z,992.98
2022-12-05T10:17:52.338Z,992.96
2022-12-05T10:18:54.068Z,992.96
2022-12-05T10:19:55.805Z,992.94
2022-12-05T10:20:57.544Z,992.91
2022-12-05T10:21:59.274Z,992.93
2022-12-05T10:23:01.018Z,992.93
2022-12-05T10:24:02.773Z,992.94
2022-12-05T10:25:04.467Z,992.9
2022-12-05T10:26:06.268Z,992.94
2022-12-05T10:27:07.956Z,992.97
2022-12-05T10:28:09.727Z,992.93
2022-12-05T10:29:11.398Z,993.01
2022-12-05T10:30:13.146Z,992.94
2022-12-05T10:31:15.026Z,993
2022-12-05T10:32:16.600Z,993.04
2022-12-05T10:33:18.381Z,993.03
2022-12-05T10:34:20.072Z,993.01
2022-12-05T10:35:21.799Z,992.96
2022-12-05T10:36:23.539Z,993.01
2022-12-05T10:37:25.311Z,992.97
2022-12-05T10:38:27.014Z,992.92
2022-12-05T10:39:28.740Z,993
2022-12-05T10:40:30.467Z,992.9
2022-12-05T10:41:32.245Z,992.82
2022-12-05T10:42:33.945Z,992.89
2022-12-05T10:43:35.704Z,992.85
2022-12-05T10:44:37.424Z,992.89
2022-12-05T10:45:39.056Z,992.87
2022-12-05T10:46:40.926Z,992.86
2022-12-05T10:47:42.529Z,992.88
2022-12-05T10:48:44.277Z,992.83
2022-12-05T10:49:46.102Z,992.85
2022-12-05T10:50:47.743Z,992.85
2022-12-05T10:51:49.458Z,992.87
2022-12-05T10:52:51.264Z,992.89
2022-12-05T10:53:52.929Z,992.84
2022-12-05T10:54:54.701Z,992.85
2022-12-05T10:56:28.844Z,992.74
2022-12-05T10:56:58.119Z,992.76
2022-12-05T10:57:59.921Z,992.79
2022-12-05T10:59:01.608Z,992.74
2022-12-05T11:00:03.461Z,992.72
2022-12-05T11:01:05.078Z,992.68
2022-12-05T11:02:06.833Z,992.71
2022-12-05T11:03:08.515Z,992.64
2022-12-05T11:04:13.686Z,992.72
2022-12-05T11:05:12.013Z,992.7
2022-12-05T11:06:13.734Z,992.73
2022-12-05T11:07:15.460Z,992.73
2022-12-05T11:08:17.205Z,992.8
2022-12-05T11:09:18.870Z,992.74
2022-12-05T11:10:26.146Z,992.78
2022-12-05T11:11:22.352Z,992.81
2022-12-05T11:12:24.088Z,992.79
2022-12-05T11:13:25.821Z,992.82
2022-12-05T11:14:27.550Z,992.81
2022-12-05T11:15:29.337Z,992.86
2022-12-05T11:16:31.123Z,992.85
2022-12-05T11:17:32.785Z,992.82
2022-12-05T11:18:34.475Z,992.84
2022-12-05T11:19:36.248Z,992.83
2022-12-05T11:20:37.961Z,992.8
2022-12-05T11:21:39.723Z,992.83
2022-12-05T11:22:45.739Z,992.88
2022-12-05T11:23:43.183Z,992.85
2022-12-05T11:24:44.932Z,992.88
2022-12-05T11:25:46.678Z,992.84
2022-12-05T11:26:48.419Z,992.86
2022-12-05T11:27:50.167Z,992.85
2022-12-05T11:28:51.845Z,992.86
2022-12-05T11:29:53.564Z,992.8
2022-12-05T11:30:55.400Z,992.85
2022-12-05T11:31:57.027Z,992.87
2022-12-05T11:32:58.771Z,992.87
2022-12-05T11:34:02.107Z,992.85
2022-12-05T11:35:02.556Z,992.91
2022-12-05T11:36:04.000Z,992.91
2022-12-05T11:37:05.733Z,992.91
2022-12-05T11:38:07.507Z,992.88
2022-12-05T11:39:09.148Z,992.89
2022-12-05T11:40:10.920Z,992.92
2022-12-05T11:41:12.696Z,992.85
2022-12-05T11:42:14.418Z,992.82
2022-12-05T11:43:16.129Z,992.84
2022-12-05T11:44:17.851Z,992.86
2022-12-05T11:45:19.603Z,992.83
2022-12-05T11:46:26.280Z,992.81
2022-12-05T11:47:23.070Z,992.81
2022-12-05T11:48:24.829Z,992.77
2022-12-05T11:49:26.518Z,992.82
2022-12-05T11:50:28.228Z,992.82
2022-12-05T11:51:29.978Z,992.8
2022-12-05T11:52:34.798Z,992.81
2022-12-05T11:53:33.442Z,992.77
2022-12-05T11:55:04.017Z,992.75
2022-12-05T11:55:36.944Z,992.75
2022-12-05T11:56:38.681Z,992.69
2022-12-05T11:57:40.404Z,992.71
2022-12-05T11:58:42.090Z,992.74
2022-12-05T11:59:43.812Z,992.71
2022-12-05T12:00:45.545Z,992.67
2022-12-05T12:01:47.352Z,992.74
2022-12-05T12:02:49.121Z,992.72
2022-12-05T12:03:50.868Z,992.75
2022-12-05T12:04:52.483Z,992.67
2022-12-05T12:05:54.289Z,992.73
2022-12-05T12:06:56.066Z,992.72
2022-12-05T12:07:57.834Z,992.74
2022-12-05T12:08:59.425Z,992.77
2022-12-05T12:10:03.595Z,992.78
2022-12-05T12:11:02.942Z,992.78
2022-12-05T12:12:04.613Z,992.81
2022-12-05T12:13:06.373Z,992.83
2022-12-05T12:14:08.077Z,992.78
2022-12-05T12:15:09.847Z,992.8
2022-12-05T12:16:11.695Z,992.77
2022-12-05T12:17:13.337Z,992.76
2022-12-05T12:18:15.002Z,992.76
2022-12-05T12:19:16.787Z,992.77
2022-12-05T12:20:18.492Z,992.77
2022-12-05T12:21:20.579Z,992.73
2022-12-05T12:22:22.248Z,992.77
2022-12-05T12:23:23.726Z,992.76
2022-12-05T12:24:25.480Z,992.81
2022-12-05T12:25:27.170Z,992.79
2022-12-05T12:26:28.887Z,992.81
2022-12-05T12:27:30.620Z,992.82
2022-12-05T12:28:32.404Z,992.81
2022-12-05T12:29:34.093Z,992.8
2022-12-05T12:30:35.818Z,992.88
2022-12-05T12:31:37.578Z,992.82
2022-12-05T12:32:39.330Z,992.87
2022-12-05T12:33:41.071Z,992.84
2022-12-05T12:34:42.762Z,992.83
2022-12-05T12:35:44.486Z,992.74
2022-12-05T12:36:46.219Z,992.8
2022-12-05T12:37:47.957Z,992.77
2022-12-05T12:38:51.308Z,992.74
2022-12-05T12:39:51.455Z,992.74
2022-12-05T12:40:53.142Z,992.72
2022-12-05T12:41:54.879Z,992.69
2022-12-05T12:42:56.616Z,992.7
2022-12-05T12:43:58.371Z,992.71
2022-12-05T12:45:00.563Z,992.68
2022-12-05T12:46:06.532Z,992.73
2022-12-05T12:47:03.563Z,992.74
2022-12-05T12:48:05.295Z,992.69
2022-12-05T12:49:07.053Z,992.77
2022-12-05T12:50:08.751Z,992.73
2022-12-05T12:51:10.491Z,992.76
2022-12-05T12:52:12.208Z,992.74
2022-12-05T12:53:13.954Z,992.75
2022-12-05T12:54:25.187Z,992.79
2022-12-05T12:55:17.638Z,992.78
2022-12-05T12:56:19.158Z,992.79
2022-12-05T12:57:23.830Z,992.74